createdAt,value
2024-04-21T00:00:23.736Z,5.00
2024-04-21T00:01:28.999Z,6.88
2024-04-21T00:02:34.586Z,6.97
2024-04-21T00:03:37.258Z,4.93
2024-04-21T00:04:40.153Z,5.95
2024-04-21T00:05:45.356Z,5.50
2024-04-21T00:06:48.009Z,6.70
2024-04-21T00:07:50.597Z,5.97
2024-04-21T00:08:53.240Z,7.07
2024-04-21T00:09:58.458Z,4.82
2024-04-21T00:11:01.218Z,6.97
2024-04-21T00:12:04.260Z,6.72
2024-04-21T00:13:09.495Z,7.22
2024-04-21T00:14:12.098Z,6.72
2024-04-21T00:15:14.702Z,5.40
2024-04-21T00:16:20.067Z,5.53
2024-04-21T00:17:22.843Z,6.30
2024-04-21T00:18:28.040Z,7.15
2024-04-21T00:19:30.672Z,5.85
2024-04-21T00:20:35.872Z,5.95
2024-04-21T00:21:38.433Z,6.32
2024-04-21T00:22:41.296Z,7.43
2024-04-21T00:23:46.483Z,9.57
2024-04-21T00:24:49.063Z,6.72
2024-04-21T00:25:57.670Z,9.23
2024-04-21T00:27:02.914Z,5.80
2024-04-21T00:28:07.079Z,6.18
2024-04-21T00:29:09.834Z,7.05
2024-04-21T00:30:12.782Z,7.40
2024-04-21T00:31:18.208Z,6.60
2024-04-21T00:32:20.868Z,9.55
2024-04-21T00:33:23.686Z,9.02
2024-04-21T00:34:31.571Z,8.75
2024-04-21T00:35:34.221Z,6.50
2024-04-21T00:36:36.924Z,6.75
2024-04-21T00:37:42.127Z,6.28
2024-04-21T00:38:44.690Z,6.40
2024-04-21T00:39:47.287Z,7.20
2024-04-21T00:40:49.946Z,6.88
2024-04-21T00:41:55.115Z,8.02
2024-04-21T00:43:02.245Z,8.20
2024-04-21T00:44:04.937Z,7.55
2024-04-21T00:45:09.968Z,6.90
2024-04-21T00:46:18.065Z,9.13
2024-04-21T00:47:20.768Z,7.47
2024-04-21T00:48:23.966Z,7.22
2024-04-21T00:49:29.226Z,7.70
2024-04-21T00:50:35.419Z,6.35
2024-04-21T00:51:38.588Z,7.00
2024-04-21T00:52:41.353Z,6.68
2024-04-21T00:53:45.266Z,6.85
2024-04-21T00:54:50.939Z,6.53
2024-04-21T00:55:54.231Z,6.63
2024-04-21T00:56:56.967Z,8.93
2024-04-21T00:57:59.859Z,7.20
2024-04-21T00:59:05.805Z,7.38
2024-04-21T01:00:12.167Z,6.90
2024-04-21T01:01:14.859Z,8.13
2024-04-21T01:02:17.544Z,7.63
2024-04-21T01:03:22.917Z,6.55
2024-04-21T01:04:27.011Z,7.18
2024-04-21T01:05:32.707Z,6.35
2024-04-21T01:06:35.421Z,7.55
2024-04-21T01:07:41.134Z,7.60
2024-04-21T01:08:44.231Z,8.38
2024-04-21T01:09:46.900Z,7.20
2024-04-21T01:10:52.155Z,7.40
2024-04-21T01:11:54.725Z,5.65
2024-04-21T01:12:57.506Z,6.15
2024-04-21T01:14:00.229Z,7.18
2024-04-21T01:16:08.402Z,6.82
2024-04-21T01:17:11.064Z,6.32
2024-04-21T01:18:16.321Z,7.53
2024-04-21T01:19:23.118Z,6.43
2024-04-21T01:20:26.169Z,6.90
2024-04-21T01:21:34.177Z,7.63
2024-04-21T01:22:42.090Z,8.18
2024-04-21T01:23:44.691Z,7.05
2024-04-21T01:24:47.318Z,6.78
2024-04-21T01:25:52.566Z,6.40
2024-04-21T01:26:56.201Z,6.90
2024-04-21T01:27:59.354Z,6.25
2024-04-21T01:29:01.946Z,7.57
2024-04-21T01:30:07.750Z,7.05
2024-04-21T01:31:10.410Z,7.03
2024-04-21T01:32:19.365Z,6.13
2024-04-21T01:33:24.669Z,5.55
2024-04-21T01:34:27.598Z,6.28
2024-04-21T01:35:30.348Z,6.60
2024-04-21T01:36:32.950Z,5.20
2024-04-21T01:37:39.189Z,6.63
2024-04-21T01:38:44.469Z,6.03
2024-04-21T01:39:47.210Z,8.57
2024-04-21T01:40:50.896Z,6.20
2024-04-21T01:41:56.121Z,5.45
2024-04-21T01:42:58.832Z,7.03
2024-04-21T01:44:01.514Z,6.88
2024-04-21T01:45:04.652Z,8.82
2024-04-21T01:46:09.857Z,6.55
2024-04-21T01:47:12.771Z,5.93
2024-04-21T01:48:15.523Z,7.65
2024-04-21T01:49:18.181Z,5.97
2024-04-21T01:50:24.789Z,7.80
2024-04-21T01:51:27.426Z,7.10
2024-04-21T01:52:30.213Z,6.57
2024-04-21T01:53:36.789Z,6.28
2024-04-21T01:54:42.096Z,6.65
2024-04-21T01:55:44.698Z,6.78
2024-04-21T01:56:47.390Z,5.60
2024-04-21T01:57:52.719Z,6.50
2024-04-21T01:58:55.325Z,6.07
2024-04-21T01:59:57.966Z,6.43
2024-04-21T02:01:00.747Z,5.60
2024-04-21T02:02:06.018Z,7.05
2024-04-21T02:03:08.663Z,6.88
2024-04-21T02:04:11.362Z,7.47
2024-04-21T02:05:16.628Z,6.05
2024-04-21T02:06:19.254Z,6.80
2024-04-21T02:07:21.936Z,5.72
2024-04-21T02:08:27.163Z,4.78
2024-04-21T02:09:29.720Z,5.78
2024-04-21T02:10:34.997Z,5.18
2024-04-21T02:11:40.339Z,4.68
2024-04-21T02:12:42.934Z,4.65
2024-04-21T02:13:45.606Z,4.15
2024-04-21T02:14:48.271Z,5.28
2024-04-21T02:15:54.586Z,4.50
2024-04-21T02:16:57.275Z,4.05
2024-04-21T02:17:59.864Z,4.07
2024-04-21T02:19:02.584Z,5.72
2024-04-21T02:20:08.776Z,5.03
2024-04-21T02:21:11.457Z,5.30
2024-04-21T02:22:14.208Z,4.43
2024-04-21T02:23:16.822Z,4.68
2024-04-21T02:24:22.073Z,4.63
2024-04-21T02:25:25.342Z,5.50
2024-04-21T02:26:30.648Z,4.68
2024-04-21T02:27:33.413Z,4.47
2024-04-21T02:28:38.688Z,4.57
2024-04-21T02:29:41.604Z,6.13
2024-04-21T02:30:44.398Z,5.55
2024-04-21T02:31:49.617Z,5.28
2024-04-21T02:32:52.312Z,4.82
2024-04-21T02:33:55.036Z,4.30
2024-04-21T02:34:57.808Z,5.07
2024-04-21T02:36:03.053Z,5.38
2024-04-21T02:37:05.889Z,4.93
2024-04-21T02:38:09.241Z,4.13
2024-04-21T02:39:11.888Z,5.60
2024-04-21T02:40:17.542Z,5.18
2024-04-21T02:41:20.275Z,7.47
2024-04-21T02:42:25.504Z,8.05
2024-04-21T02:43:28.078Z,5.00
2024-04-21T02:44:33.403Z,6.15
2024-04-21T02:45:36.156Z,6.30
2024-04-21T02:46:38.917Z,8.82
2024-04-21T02:47:41.522Z,5.43
2024-04-21T02:48:46.999Z,6.30
2024-04-21T02:49:49.643Z,6.68
2024-04-21T02:50:52.339Z,6.57
2024-04-21T02:51:57.604Z,5.85
2024-04-21T02:53:00.195Z,6.60
2024-04-21T02:54:02.877Z,7.25
2024-04-21T02:55:08.648Z,5.43
2024-04-21T02:56:11.212Z,6.00
2024-04-21T02:57:13.787Z,5.38
2024-04-21T02:58:19.244Z,6.45
2024-04-21T02:59:25.956Z,5.88
2024-04-21T03:00:30.146Z,5.22
2024-04-21T03:01:33.084Z,6.50
2024-04-21T03:02:36.203Z,5.45
2024-04-21T03:03:41.459Z,5.55
2024-04-21T03:04:44.136Z,5.82
2024-04-21T03:05:55.254Z,5.30
2024-04-21T03:07:00.620Z,5.38
2024-04-21T03:08:04.269Z,5.43
2024-04-21T03:09:06.896Z,6.53
2024-04-21T03:10:09.481Z,5.82
2024-04-21T03:11:14.962Z,5.88
2024-04-21T03:12:17.539Z,5.43
2024-04-21T03:13:23.161Z,5.90
2024-04-21T03:14:25.771Z,6.43
2024-04-21T03:15:31.034Z,6.93
2024-04-21T03:16:33.744Z,5.47
2024-04-21T03:17:36.393Z,6.80
2024-04-21T03:18:41.682Z,4.90
2024-04-21T03:19:48.447Z,6.32
2024-04-21T03:20:57.151Z,6.25
2024-04-21T03:22:03.736Z,6.93
2024-04-21T03:23:06.344Z,8.13
2024-04-21T03:24:09.018Z,6.05
2024-04-21T03:25:11.693Z,5.60
2024-04-21T03:26:16.930Z,7.40
2024-04-21T03:27:19.600Z,5.35
2024-04-21T03:28:24.867Z,5.93
2024-04-21T03:29:27.563Z,5.57
2024-04-21T03:30:32.809Z,7.15
2024-04-21T03:31:35.400Z,5.93
2024-04-21T03:32:38.122Z,5.90
2024-04-21T03:33:40.792Z,5.88
2024-04-21T03:34:46.134Z,6.60
2024-04-21T03:35:48.724Z,7.88
2024-04-21T03:36:53.915Z,4.95
2024-04-21T03:37:56.471Z,7.00
2024-04-21T03:39:01.718Z,6.60
2024-04-21T03:40:04.953Z,5.38
2024-04-21T03:41:10.701Z,5.82
2024-04-21T03:42:13.333Z,6.18
2024-04-21T03:43:16.054Z,7.22
2024-04-21T03:44:24.923Z,7.07
2024-04-21T03:45:27.516Z,8.40
2024-04-21T03:46:30.162Z,8.77
2024-04-21T03:47:35.460Z,5.88
2024-04-21T03:48:38.233Z,7.63
2024-04-21T03:49:40.783Z,7.60
2024-04-21T03:50:43.504Z,6.95
2024-04-21T03:51:48.745Z,7.50
2024-04-21T03:52:51.361Z,7.50
2024-04-21T03:53:53.933Z,6.55
2024-04-21T03:54:56.708Z,6.82
2024-04-21T03:56:02.308Z,6.22
2024-04-21T03:57:06.741Z,7.82
2024-04-21T03:58:09.491Z,9.02
2024-04-21T03:59:12.140Z,8.43
2024-04-21T04:00:20.232Z,7.90
2024-04-21T04:01:23.042Z,10.63
2024-04-21T04:02:25.713Z,8.52
2024-04-21T04:03:28.422Z,8.73
2024-04-21T04:04:33.701Z,8.02
2024-04-21T04:05:36.396Z,8.07
2024-04-21T04:06:39.045Z,9.93
2024-04-21T04:07:41.622Z,6.53
2024-04-21T04:08:46.778Z,6.50
2024-04-21T04:09:49.826Z,6.45
2024-04-21T04:10:52.507Z,6.28
2024-04-21T04:11:55.163Z,8.35
2024-04-21T04:13:00.430Z,7.10
2024-04-21T04:14:03.046Z,8.30
2024-04-21T04:15:06.437Z,5.97
2024-04-21T04:16:11.679Z,7.15
2024-04-21T04:17:16.982Z,11.13
2024-04-21T04:18:19.783Z,5.63
2024-04-21T04:19:22.434Z,7.70
2024-04-21T04:20:25.119Z,7.32
2024-04-21T04:21:30.330Z,5.55
2024-04-21T04:22:32.944Z,4.85
2024-04-21T04:23:35.556Z,5.57
2024-04-21T04:24:40.869Z,4.70
2024-04-21T04:25:44.650Z,4.85
2024-04-21T04:26:47.254Z,5.53
2024-04-21T04:27:52.459Z,4.63
2024-04-21T04:28:55.073Z,5.38
2024-04-21T04:29:57.697Z,4.93
2024-04-21T04:31:00.561Z,6.35
2024-04-21T04:32:09.052Z,5.53
2024-04-21T04:33:11.673Z,4.78
2024-04-21T04:34:16.150Z,6.47
2024-04-21T04:35:21.671Z,4.85
2024-04-21T04:36:24.322Z,4.45
2024-04-21T04:37:27.433Z,4.30
2024-04-21T04:38:32.719Z,4.72
2024-04-21T04:39:35.317Z,4.78
2024-04-21T04:40:37.957Z,5.18
2024-04-21T04:41:40.558Z,4.30
2024-04-21T04:42:49.356Z,4.63
2024-04-21T04:43:52.125Z,4.25
2024-04-21T04:44:54.690Z,5.82
2024-04-21T04:45:57.292Z,3.75
2024-04-21T04:47:02.565Z,6.20
2024-04-21T04:48:08.411Z,4.25
2024-04-21T04:49:11.084Z,4.80
2024-04-21T04:50:17.360Z,5.25
2024-04-21T04:51:20.004Z,3.42
2024-04-21T04:52:22.944Z,4.30
2024-04-21T04:53:28.148Z,4.82
2024-04-21T04:54:30.770Z,4.53
2024-04-21T04:55:33.411Z,3.92
2024-04-21T04:56:35.982Z,5.43
2024-04-21T04:57:41.194Z,4.22
2024-04-21T04:58:43.806Z,4.07
2024-04-21T04:59:46.420Z,4.50
2024-04-21T05:00:51.704Z,3.42
2024-04-21T05:01:54.428Z,3.35
2024-04-21T05:02:57.113Z,4.22
2024-04-21T05:04:02.508Z,5.47
2024-04-21T05:05:08.251Z,4.88
2024-04-21T05:06:10.831Z,5.60
2024-04-21T05:07:14.273Z,3.13
2024-04-21T05:08:17.049Z,3.10
2024-04-21T05:09:22.291Z,3.95
2024-04-21T05:10:25.097Z,3.63
2024-04-21T05:11:27.751Z,4.30
2024-04-21T05:12:30.289Z,4.63
2024-04-21T05:13:35.500Z,3.35
2024-04-21T05:14:38.094Z,4.15
2024-04-21T05:15:40.660Z,3.70
2024-04-21T05:16:46.647Z,3.83
2024-04-21T05:17:52.295Z,5.38
2024-04-21T05:18:54.957Z,2.80
2024-04-21T05:20:00.154Z,4.82
2024-04-21T05:21:02.813Z,3.22
2024-04-21T05:22:08.369Z,3.53
2024-04-21T05:23:10.974Z,4.30
2024-04-21T05:24:13.614Z,2.90
2024-04-21T05:25:16.301Z,3.83
2024-04-21T05:26:21.567Z,3.72
2024-04-21T05:27:24.187Z,3.08
2024-04-21T05:28:36.794Z,5.25
2024-04-21T05:29:48.229Z,2.85
2024-04-21T05:30:53.450Z,2.60
2024-04-21T05:31:56.137Z,4.05
2024-04-21T05:32:58.805Z,3.30
2024-04-21T05:34:01.452Z,2.88
2024-04-21T05:35:09.379Z,3.13
2024-04-21T05:36:12.039Z,5.07
2024-04-21T05:37:14.629Z,3.03
2024-04-21T05:38:17.258Z,3.17
2024-04-21T05:39:24.562Z,2.75
2024-04-21T05:40:27.313Z,4.35
2024-04-21T05:41:29.919Z,4.15
2024-04-21T05:42:32.553Z,3.40
2024-04-21T05:43:37.786Z,3.80
2024-04-21T05:44:40.423Z,3.17
2024-04-21T05:45:43.400Z,3.45
2024-04-21T05:46:45.990Z,2.50
2024-04-21T05:47:51.271Z,2.17
2024-04-21T05:48:54.760Z,3.80
2024-04-21T05:49:57.366Z,3.80
2024-04-21T05:51:02.622Z,2.17
2024-04-21T05:52:08.385Z,4.68
2024-04-21T05:53:10.970Z,2.67
2024-04-21T05:54:13.571Z,3.00
2024-04-21T05:55:16.403Z,4.03
2024-04-21T05:56:21.598Z,4.13
2024-04-21T05:57:24.245Z,2.83
2024-04-21T05:58:27.213Z,3.50
2024-04-21T05:59:30.455Z,2.88
2024-04-21T06:00:35.810Z,3.03
2024-04-21T06:01:38.513Z,2.30
2024-04-21T06:02:41.127Z,2.65
2024-04-21T06:03:43.764Z,2.15
2024-04-21T06:04:49.059Z,3.50
2024-04-21T06:05:52.372Z,2.50
2024-04-21T06:06:57.613Z,3.03
2024-04-21T06:08:00.378Z,2.45
2024-04-21T06:09:05.603Z,2.30
2024-04-21T06:10:08.351Z,3.20
2024-04-21T06:11:11.081Z,2.65
2024-04-21T06:12:13.817Z,2.22
2024-04-21T06:13:19.086Z,3.05
2024-04-21T06:14:21.714Z,2.35
2024-04-21T06:15:25.157Z,3.88
2024-04-21T06:16:27.823Z,3.90
2024-04-21T06:17:33.128Z,2.28
2024-04-21T06:18:35.820Z,2.90
2024-04-21T06:19:39.031Z,1.98
2024-04-21T06:20:44.284Z,2.05
2024-04-21T06:21:47.009Z,3.20
2024-04-21T06:22:52.313Z,3.33
2024-04-21T06:23:57.584Z,3.50
2024-04-21T06:25:00.250Z,2.38
2024-04-21T06:26:02.937Z,4.07
2024-04-21T06:27:06.163Z,2.92
2024-04-21T06:28:12.979Z,2.35
2024-04-21T06:29:15.885Z,2.72
2024-04-21T06:30:18.534Z,3.15
2024-04-21T06:31:23.782Z,2.40
2024-04-21T06:32:26.748Z,2.50
2024-04-21T06:33:29.920Z,2.65
2024-04-21T06:34:32.499Z,2.20
2024-04-21T06:35:39.033Z,3.22
2024-04-21T06:36:41.584Z,3.22
2024-04-21T06:37:44.474Z,2.72
2024-04-21T06:38:50.489Z,2.55
2024-04-21T06:39:55.819Z,2.85
2024-04-21T06:40:58.622Z,3.90
2024-04-21T06:42:04.201Z,3.80
2024-04-21T06:43:09.483Z,3.67
2024-04-21T06:44:12.078Z,3.28
2024-04-21T06:45:14.839Z,3.05
2024-04-21T06:46:20.056Z,3.72
2024-04-21T06:47:24.532Z,4.03
2024-04-21T06:48:28.977Z,4.20
2024-04-21T06:49:31.761Z,3.50
2024-04-21T06:50:37.228Z,5.22
2024-04-21T06:51:39.879Z,2.53
2024-04-21T06:52:42.492Z,3.40
2024-04-21T06:53:46.603Z,3.38
2024-04-21T06:54:55.304Z,3.63
2024-04-21T06:55:59.503Z,3.03
2024-04-21T06:57:02.050Z,8.23
2024-04-21T06:58:04.946Z,3.70
2024-04-21T06:59:07.742Z,3.15
2024-04-21T07:00:14.072Z,4.47
2024-04-21T07:01:16.883Z,4.05
2024-04-21T07:02:19.839Z,3.70
2024-04-21T07:03:25.147Z,6.72
2024-04-21T07:04:29.807Z,5.18
2024-04-21T07:05:32.540Z,4.78
2024-04-21T07:06:37.706Z,3.20
2024-04-21T07:07:40.333Z,4.63
2024-04-21T07:08:43.214Z,4.78
2024-04-21T07:09:45.742Z,4.05
2024-04-21T07:10:53.559Z,3.60
2024-04-21T07:11:56.051Z,2.75
2024-04-21T07:12:58.803Z,6.10
2024-04-21T07:14:10.432Z,4.70
2024-04-21T07:15:23.734Z,4.80
2024-04-21T07:16:26.318Z,3.13
2024-04-21T07:17:29.024Z,3.45
2024-04-21T07:18:34.407Z,4.80
2024-04-21T07:19:37.049Z,3.92
2024-04-21T07:20:39.779Z,3.75
2024-04-21T07:21:42.517Z,4.47
2024-04-21T07:22:47.761Z,3.72
2024-04-21T07:23:50.335Z,5.03
2024-04-21T07:24:52.979Z,3.85
2024-04-21T07:26:00.813Z,6.72
2024-04-21T07:27:03.436Z,5.82
2024-04-21T07:28:06.348Z,5.22
2024-04-21T07:29:08.964Z,5.13
2024-04-21T07:30:14.501Z,5.93
2024-04-21T07:31:17.194Z,6.57
2024-04-21T07:32:19.965Z,5.43
2024-04-21T07:33:22.552Z,5.05
2024-04-21T07:34:27.801Z,4.78
2024-04-21T07:35:30.490Z,5.43
2024-04-21T07:36:33.075Z,5.47
2024-04-21T07:37:38.339Z,6.95
2024-04-21T07:38:40.981Z,4.50
2024-04-21T07:39:43.745Z,4.78
2024-04-21T07:40:48.975Z,5.60
2024-04-21T07:41:54.203Z,4.90
2024-04-21T07:42:56.904Z,7.28
2024-04-21T07:43:59.541Z,5.47
2024-04-21T07:45:04.782Z,4.78
2024-04-21T07:46:07.939Z,4.93
2024-04-21T07:47:10.644Z,4.63
2024-04-21T07:48:15.930Z,4.07
2024-04-21T07:49:18.532Z,4.80
2024-04-21T07:50:21.190Z,4.30
2024-04-21T07:51:23.858Z,5.28
2024-04-21T07:52:29.067Z,4.65
2024-04-21T07:53:31.677Z,5.53
2024-04-21T07:54:34.480Z,3.65
2024-04-21T07:55:37.118Z,4.70
2024-04-21T07:56:42.285Z,3.88
2024-04-21T07:57:47.475Z,3.85
2024-04-21T07:58:50.132Z,5.65
2024-04-21T07:59:55.394Z,3.60
2024-04-21T08:00:58.164Z,3.60
2024-04-21T08:02:01.273Z,3.83
2024-04-21T08:03:06.775Z,4.78
2024-04-21T08:04:09.373Z,6.00
2024-04-21T08:05:12.044Z,4.28
2024-04-21T08:06:14.676Z,4.97
2024-04-21T08:07:20.044Z,4.45
2024-04-21T08:08:22.705Z,4.35
2024-04-21T08:09:30.335Z,4.13
2024-04-21T08:10:47.424Z,6.53
2024-04-21T08:11:53.676Z,4.38
2024-04-21T08:12:58.992Z,6.45
2024-04-21T08:14:04.289Z,6.03
2024-04-21T08:15:08.683Z,3.33
2024-04-21T08:16:11.358Z,6.57
2024-04-21T08:17:16.550Z,4.47
2024-04-21T08:18:19.433Z,4.30
2024-04-21T08:19:22.175Z,3.00
2024-04-21T08:20:27.476Z,3.72
2024-04-21T08:21:30.793Z,4.43
2024-04-21T08:22:33.511Z,3.67
2024-04-21T08:23:36.155Z,3.83
2024-04-21T08:24:41.306Z,4.55
2024-04-21T08:25:43.870Z,4.45
2024-04-21T08:26:46.782Z,4.78
2024-04-21T08:27:52.003Z,4.45
2024-04-21T08:28:57.282Z,3.00
2024-04-21T08:29:59.861Z,5.88
2024-04-21T08:31:05.086Z,4.00
2024-04-21T08:32:08.208Z,4.35
2024-04-21T08:33:10.888Z,3.33
2024-04-21T08:34:16.105Z,4.55
2024-04-21T08:35:18.794Z,5.05
2024-04-21T08:36:21.460Z,6.50
2024-04-21T08:37:25.007Z,4.85
2024-04-21T08:38:32.215Z,7.57
2024-04-21T08:39:34.861Z,7.82
2024-04-21T08:40:40.212Z,6.20
2024-04-21T08:41:43.214Z,5.78
2024-04-21T08:42:49.174Z,5.18
2024-04-21T08:43:51.864Z,6.00
2024-04-21T08:44:57.543Z,11.40
2024-04-21T08:46:00.321Z,5.82
2024-04-21T08:47:06.161Z,5.78
2024-04-21T08:48:09.025Z,7.57
2024-04-21T08:49:12.160Z,5.13
2024-04-21T08:50:17.858Z,8.13
2024-04-21T08:51:21.884Z,3.88
2024-04-21T08:52:24.807Z,5.20
2024-04-21T08:53:27.512Z,5.97
2024-04-21T08:54:32.820Z,6.38
2024-04-21T08:55:39.716Z,6.32
2024-04-21T08:56:45.889Z,5.53
2024-04-21T08:57:48.771Z,4.50
2024-04-21T08:58:55.295Z,6.50
2024-04-21T09:00:03.848Z,7.53
2024-04-21T09:01:06.897Z,6.97
2024-04-21T09:02:15.152Z,8.18
2024-04-21T09:03:17.902Z,3.60
2024-04-21T09:04:21.947Z,3.38
2024-04-21T09:05:24.964Z,4.53
2024-04-21T09:06:31.036Z,2.80
2024-04-21T09:07:33.894Z,4.55
2024-04-21T09:08:36.496Z,4.50
2024-04-21T09:09:39.070Z,5.18
2024-04-21T09:10:44.386Z,3.58
2024-04-21T09:11:47.099Z,4.32
2024-04-21T09:12:50.938Z,5.15
2024-04-21T09:14:59.839Z,4.30
2024-04-21T09:16:05.820Z,3.40
2024-04-21T09:17:08.502Z,3.58
2024-04-21T09:18:11.225Z,3.92
2024-04-21T09:19:16.422Z,3.33
2024-04-21T09:20:19.080Z,3.15
2024-04-21T09:21:21.815Z,4.15
2024-04-21T09:22:24.544Z,1.45
2024-04-21T09:23:29.852Z,1.05
2024-04-21T09:24:32.915Z,0.77
2024-04-21T09:25:37.712Z,1.63
2024-04-21T09:26:40.285Z,0.90
2024-04-21T09:27:45.537Z,0.77
2024-04-21T09:28:48.140Z,1.33
2024-04-21T09:29:50.720Z,1.52
2024-04-21T09:30:53.560Z,1.00
2024-04-21T09:32:01.516Z,2.13
2024-04-21T09:33:07.695Z,1.02
2024-04-21T09:34:10.436Z,1.98
2024-04-21T09:35:15.700Z,1.10
2024-04-21T09:36:18.645Z,1.40
2024-04-21T09:37:21.396Z,1.08
2024-04-21T09:38:23.981Z,2.13
2024-04-21T09:39:31.238Z,1.23
2024-04-21T09:40:37.435Z,1.88
2024-04-21T09:41:42.368Z,1.75
2024-04-21T09:42:47.228Z,3.28
2024-04-21T09:43:54.110Z,1.80
2024-04-21T09:44:58.280Z,2.15
2024-04-21T09:46:02.439Z,1.42
2024-04-21T09:47:11.304Z,1.80
2024-04-21T09:48:15.078Z,1.65
2024-04-21T09:50:23.572Z,4.28
2024-04-21T09:51:30.360Z,1.20
2024-04-21T09:52:34.081Z,1.40
2024-04-21T09:53:37.224Z,0.70
2024-04-21T09:54:40.369Z,1.73
2024-04-21T09:55:49.965Z,1.90
2024-04-21T09:56:59.387Z,0.52
2024-04-21T09:58:03.158Z,0.73
2024-04-21T09:59:10.487Z,0.77
2024-04-21T10:00:20.854Z,0.60
2024-04-21T10:01:29.215Z,1.10
2024-04-21T10:02:39.285Z,1.20
2024-04-21T10:04:53.914Z,1.60
2024-04-21T10:05:58.094Z,2.70
2024-04-21T10:07:03.781Z,0.68
2024-04-21T10:08:08.498Z,0.98
2024-04-21T10:09:12.278Z,3.10
2024-04-21T10:10:18.135Z,6.00
2024-04-21T10:11:23.551Z,8.70
2024-04-21T10:12:27.088Z,3.80
2024-04-21T10:13:32.516Z,1.95
2024-04-21T10:14:38.233Z,6.32
2024-04-21T10:15:41.203Z,16.80
2024-04-21T10:16:44.082Z,1.50
2024-04-21T10:17:58.067Z,1.00
2024-04-21T10:19:06.837Z,0.70
2024-04-21T10:20:11.038Z,2.80
2024-04-21T10:21:15.777Z,6.50
2024-04-21T10:22:20.659Z,5.22
2024-04-21T10:23:25.911Z,7.32
2024-04-21T10:24:28.566Z,16.45
2024-04-21T10:25:33.551Z,11.73
2024-04-21T10:26:36.179Z,4.28
2024-04-21T10:27:41.418Z,1.58
2024-04-21T10:28:44.028Z,3.00
2024-04-21T10:29:47.460Z,3.58
2024-04-21T10:30:50.059Z,2.60
2024-04-21T10:31:55.512Z,1.92
2024-04-21T10:33:03.987Z,1.20
2024-04-21T10:34:07.616Z,2.35
2024-04-21T10:35:10.658Z,0.77
2024-04-21T10:36:22.254Z,1.45
2024-04-21T10:37:26.419Z,1.00
2024-04-21T10:38:29.111Z,1.45
2024-04-21T10:39:34.314Z,3.45
2024-04-21T10:40:39.569Z,1.83
2024-04-21T10:41:45.824Z,1.77
2024-04-21T10:42:55.645Z,0.98
2024-04-21T10:43:58.501Z,2.60
2024-04-21T10:45:01.625Z,2.17
2024-04-21T10:46:04.634Z,7.40
2024-04-21T10:47:09.968Z,9.05
2024-04-21T10:48:15.276Z,2.78
2024-04-21T10:49:18.904Z,1.35
2024-04-21T10:50:25.503Z,0.82
2024-04-21T10:51:28.239Z,1.08
2024-04-21T10:52:31.593Z,1.00
2024-04-21T10:53:36.866Z,3.80
2024-04-21T10:54:40.607Z,0.63
2024-04-21T10:56:45.951Z,1.45
2024-04-21T10:57:51.250Z,1.73
2024-04-21T10:58:53.819Z,0.98
2024-04-21T10:59:56.504Z,1.63
2024-04-21T11:00:59.170Z,1.10
2024-04-21T11:02:04.599Z,1.63
2024-04-21T11:03:07.791Z,1.00
2024-04-21T11:04:14.050Z,1.20
2024-04-21T11:05:16.827Z,1.23
2024-04-21T11:06:23.343Z,1.02
2024-04-21T11:07:26.189Z,3.88
2024-04-21T11:08:29.984Z,3.38
2024-04-21T11:09:35.289Z,2.92
2024-04-21T11:10:38.051Z,2.17
2024-04-21T11:11:41.720Z,1.38
2024-04-21T11:12:52.075Z,2.75
2024-04-21T11:13:55.138Z,2.75
2024-04-21T11:14:58.503Z,1.23
2024-04-21T11:16:03.802Z,1.42
2024-04-21T11:17:06.712Z,0.95
2024-04-21T11:18:09.709Z,0.65
2024-04-21T11:19:17.996Z,1.10
2024-04-21T11:20:20.716Z,0.47
2024-04-21T11:21:23.396Z,1.38
2024-04-21T11:22:28.123Z,5.28
2024-04-21T11:23:34.312Z,10.13
2024-04-21T11:24:39.217Z,1.60
2024-04-21T11:25:42.160Z,1.13
2024-04-21T11:26:45.147Z,0.80
2024-04-21T11:27:50.371Z,0.60
2024-04-21T11:28:53.012Z,0.68
2024-04-21T11:29:57.327Z,0.70
2024-04-21T11:31:07.189Z,0.93
2024-04-21T11:33:18.333Z,7.30
2024-04-21T11:34:23.703Z,11.90
2024-04-21T11:35:29.151Z,9.93
2024-04-21T11:36:32.796Z,8.15
2024-04-21T11:37:35.481Z,1.05
2024-04-21T11:38:38.204Z,1.10
2024-04-21T11:39:43.603Z,0.98
2024-04-21T11:40:46.358Z,0.88
2024-04-21T11:41:49.067Z,4.10
2024-04-21T11:42:54.373Z,5.03
2024-04-21T11:43:57.684Z,2.88
2024-04-21T11:45:00.331Z,1.63
2024-04-21T11:46:04.952Z,1.90
2024-04-21T11:47:10.642Z,1.77
2024-04-21T11:48:13.466Z,3.53
2024-04-21T11:49:16.324Z,0.90
2024-04-21T11:50:22.620Z,1.25
2024-04-21T11:51:28.067Z,0.82
2024-04-21T11:52:30.826Z,1.00
2024-04-21T11:53:33.814Z,1.52
2024-04-21T11:54:40.856Z,1.17
2024-04-21T11:55:45.474Z,1.30
2024-04-21T11:56:48.243Z,0.95
2024-04-21T11:57:50.946Z,1.95
2024-04-21T11:58:56.205Z,2.22
2024-04-21T12:00:00.637Z,1.83
2024-04-21T12:01:06.313Z,1.05
2024-04-21T12:02:11.862Z,2.70
2024-04-21T12:03:14.926Z,1.90
2024-04-21T12:04:17.718Z,1.80
2024-04-21T12:05:23.163Z,1.25
2024-04-21T12:06:28.575Z,1.33
2024-04-21T12:07:31.313Z,1.33
2024-04-21T12:08:34.059Z,3.40
2024-04-21T12:09:36.815Z,1.88
2024-04-21T12:10:43.017Z,1.90
2024-04-21T12:11:45.792Z,0.90
2024-04-21T12:12:48.454Z,1.40
2024-04-21T12:13:51.059Z,1.15
2024-04-21T12:14:56.512Z,0.73
2024-04-21T12:15:59.282Z,1.77
2024-04-21T12:17:02.290Z,2.10
2024-04-21T12:18:08.555Z,1.20
2024-04-21T12:19:13.855Z,0.63
2024-04-21T12:20:16.940Z,1.02
2024-04-21T12:21:22.252Z,1.38
2024-04-21T12:22:26.374Z,0.77
2024-04-21T12:23:31.768Z,1.42
2024-04-21T12:24:34.435Z,0.52
2024-04-21T12:25:38.427Z,0.88
2024-04-21T12:26:41.056Z,0.57
2024-04-21T12:27:47.574Z,1.02
2024-04-21T12:28:50.208Z,0.70
2024-04-21T12:29:53.329Z,0.60
2024-04-21T12:31:01.703Z,0.52
2024-04-21T12:32:07.510Z,1.85
2024-04-21T12:33:10.389Z,2.00
2024-04-21T12:34:13.158Z,0.90
2024-04-21T12:35:15.904Z,0.82
2024-04-21T12:36:21.164Z,1.50
2024-04-21T12:37:26.538Z,1.17
2024-04-21T12:38:29.452Z,4.35
2024-04-21T12:39:32.257Z,0.95
2024-04-21T12:40:39.017Z,7.07
2024-04-21T12:41:41.701Z,2.25
2024-04-21T12:42:44.360Z,5.78
2024-04-21T12:43:47.035Z,1.52
2024-04-21T12:44:52.246Z,0.75
2024-04-21T12:45:56.178Z,0.60
2024-04-21T12:46:59.043Z,1.35
2024-04-21T12:48:01.780Z,1.13
2024-04-21T12:49:07.104Z,1.48
2024-04-21T12:50:09.999Z,1.00
2024-04-21T12:51:12.758Z,1.60
2024-04-21T12:52:18.556Z,0.57
2024-04-21T12:53:24.030Z,0.75
2024-04-21T12:54:26.708Z,1.00
2024-04-21T12:55:29.415Z,1.77
2024-04-21T12:56:35.019Z,1.23
2024-04-21T12:57:37.585Z,1.10
2024-04-21T12:58:40.176Z,2.33
2024-04-21T12:59:46.666Z,1.48
2024-04-21T13:00:49.313Z,1.45
2024-04-21T13:01:52.084Z,1.27
2024-04-21T13:02:55.221Z,1.98
2024-04-21T13:04:00.631Z,0.90
2024-04-21T13:05:03.462Z,1.23
2024-04-21T13:06:06.343Z,1.45
2024-04-21T13:07:09.073Z,0.77
2024-04-21T13:08:14.353Z,1.77
2024-04-21T13:09:19.629Z,3.45
2024-04-21T13:10:22.894Z,0.50
2024-04-21T13:11:28.377Z,1.40
2024-04-21T13:12:31.059Z,0.73
2024-04-21T13:13:33.701Z,3.53
2024-04-21T13:14:36.575Z,3.50
2024-04-21T13:15:41.740Z,15.40
2024-04-21T13:16:44.635Z,5.13
2024-04-21T13:17:47.497Z,5.43
2024-04-21T13:18:50.360Z,4.05
2024-04-21T13:19:55.701Z,1.05
2024-04-21T13:20:58.566Z,1.00
2024-04-21T13:22:01.279Z,0.70
2024-04-21T13:23:04.070Z,1.13
2024-04-21T13:24:09.707Z,0.82
2024-04-21T13:25:14.950Z,2.53
2024-04-21T13:26:17.551Z,1.02
2024-04-21T13:27:22.834Z,1.17
2024-04-21T13:28:25.501Z,1.02
2024-04-21T13:29:30.661Z,2.10
2024-04-21T13:30:33.735Z,2.40
2024-04-21T13:31:39.145Z,1.00
2024-04-21T13:32:41.902Z,1.90
2024-04-21T13:33:44.433Z,2.28
2024-04-21T13:34:49.548Z,0.82
2024-04-21T13:35:52.071Z,0.75
2024-04-21T13:36:54.600Z,1.15
2024-04-21T13:37:59.840Z,1.00
2024-04-21T13:39:02.448Z,0.80
2024-04-21T13:40:06.822Z,0.73
2024-04-21T13:41:12.071Z,0.30
2024-04-21T13:42:17.190Z,0.60
2024-04-21T13:43:19.890Z,1.98
2024-04-21T13:44:22.458Z,2.47
2024-04-21T13:45:24.997Z,0.80
2024-04-21T13:46:30.205Z,1.10
2024-04-21T13:47:33.634Z,1.60
2024-04-21T13:48:36.649Z,1.30
2024-04-21T13:49:42.640Z,0.70
2024-04-21T13:50:45.281Z,2.78
2024-04-21T13:51:48.136Z,2.60
2024-04-21T13:52:50.714Z,2.03
2024-04-21T13:53:56.018Z,5.38
2024-04-21T13:54:59.553Z,2.35
2024-04-21T13:56:02.407Z,2.83
2024-04-21T13:57:10.356Z,1.30
2024-04-21T13:58:13.021Z,1.38
2024-04-21T13:59:15.675Z,1.13
2024-04-21T14:00:18.661Z,1.20
2024-04-21T14:01:24.364Z,1.77
2024-04-21T14:02:29.702Z,2.15
2024-04-21T14:03:32.391Z,1.33
2024-04-21T14:04:35.033Z,1.40
2024-04-21T14:05:40.443Z,2.95
2024-04-21T14:06:43.030Z,1.60
2024-04-21T14:07:45.645Z,2.17
2024-04-21T14:08:50.967Z,2.35
2024-04-21T14:09:53.617Z,1.25
2024-04-21T14:10:56.329Z,2.22
2024-04-21T14:12:01.645Z,1.52
2024-04-21T14:13:06.889Z,1.95
2024-04-21T14:14:09.650Z,8.35
2024-04-21T14:15:14.886Z,3.83
2024-04-21T14:16:17.516Z,2.58
2024-04-21T14:17:20.227Z,3.30
2024-04-21T14:18:27.715Z,3.30
2024-04-21T14:19:30.317Z,1.45